createdAt,value
2022-08-19T05:39:39.371Z,100165.78
2022-08-19T05:42:09.163Z,100160.09
2022-08-19T05:44:39.286Z,100158.00
2022-08-19T05:47:07.562Z,100162.94
2022-08-19T05:49:35.246Z,100160.31
2022-08-19T05:52:11.764Z,100166.81
2022-08-19T05:54:43.796Z,100169.88
2022-08-19T05:57:11.730Z,100163.69
2022-08-19T05:59:39.938Z,100175.84
2022-08-19T06:02:07.567Z,100184.47
2022-08-19T06:04:35.254Z,100186.00
2022-08-19T06:07:12.581Z,100181.44
2022-08-19T06:09:40.508Z,100177.19
2022-08-19T06:12:07.571Z,100174.03
2022-08-19T06:14:40.189Z,100166.41
2022-08-19T06:17:08.632Z,100178.59
2022-08-19T06:19:40.920Z,100178.66
2022-08-19T06:22:08.430Z,100187.47
2022-08-19T06:24:36.204Z,100197.41
2022-08-19T06:27:06.512Z,100202.66
2022-08-19T06:29:33.691Z,100198.59
2022-08-19T06:32:04.071Z,100200.81
2022-08-19T06:34:33.588Z,100204.69
2022-08-19T06:37:04.562Z,100205.88
2022-08-19T06:39:33.881Z,100213.00
2022-08-19T06:42:02.399Z,100217.44
2022-08-19T06:44:35.381Z,100211.97
2022-08-19T06:47:14.332Z,100213.69
2022-08-19T06:49:42.021Z,100215.09
2022-08-19T06:52:09.221Z,100239.97
2022-08-19T06:54:53.717Z,100242.72
2022-08-19T06:57:23.460Z,100246.28
2022-08-19T06:59:50.069Z,100239.72
2022-08-19T07:05:04.628Z,100233.94
2022-08-19T07:07:33.662Z,100255.31
2022-08-19T07:10:02.026Z,100258.03
2022-08-19T07:12:38.174Z,100252.56
2022-08-19T07:15:06.388Z,100266.25
2022-08-19T07:17:34.650Z,100263.81
2022-08-19T07:20:06.775Z,100263.50
2022-08-19T07:22:35.008Z,100267.06
2022-08-19T07:25:03.932Z,100270.91
2022-08-19T07:27:30.831Z,100274.97
2022-08-19T07:30:00.853Z,100281.47
2022-08-19T07:32:27.889Z,100280.06
2022-08-19T07:34:55.263Z,100292.03
2022-08-19T07:37:23.292Z,100297.75
2022-08-19T07:39:49.901Z,100301.22
2022-08-19T07:42:18.125Z,100301.44
2022-08-19T07:44:50.103Z,100307.94
2022-08-19T07:47:49.207Z,100308.97
2022-08-19T07:50:09.011Z,100296.81
2022-08-19T07:52:37.276Z,100294.59
2022-08-19T07:55:05.356Z,100297.25
2022-08-19T07:57:32.269Z,100307.00
2022-08-19T07:59:59.697Z,100309.66
2022-08-19T08:02:26.223Z,100310.09
2022-08-19T08:05:10.980Z,100314.88
2022-08-19T08:07:56.142Z,100309.78
2022-08-19T08:10:24.445Z,100309.13
2022-08-19T08:13:05.854Z,100307.66
2022-08-19T08:15:42.122Z,100308.91
2022-08-19T08:18:09.493Z,100298.38
2022-08-19T08:20:36.179Z,100302.63
2022-08-19T08:23:21.063Z,100304.69
2022-08-19T08:25:49.368Z,100309.47
2022-08-19T08:28:19.865Z,100308.13
2022-08-19T08:30:49.177Z,100313.88
2022-08-19T08:33:33.294Z,100313.06
2022-08-19T08:36:11.929Z,100303.91
2022-08-19T08:38:40.797Z,100319.66
2022-08-19T08:41:43.486Z,100325.03
2022-08-19T08:44:19.960Z,100321.25
2022-08-19T08:46:52.964Z,100322.88
2022-08-19T08:49:30.046Z,100316.16
2022-08-19T08:52:11.088Z,100311.88
2022-08-19T08:54:54.782Z,100315.75
2022-08-19T09:00:01.379Z,100323.03
2022-08-19T09:02:27.878Z,100321.44
2022-08-19T09:04:56.102Z,100326.78
2022-08-19T09:08:04.153Z,100315.94
2022-08-19T09:10:55.337Z,100320.13
2022-08-19T09:13:26.776Z,100316.44
2022-08-19T09:16:02.561Z,100314.19
2022-08-19T09:18:41.794Z,100319.25
2022-08-19T09:21:09.794Z,100312.56
2022-08-19T09:23:37.742Z,100319.38
2022-08-19T09:26:14.582Z,100312.34
2022-08-19T09:28:45.465Z,100319.75
2022-08-19T09:31:18.012Z,100314.47
2022-08-19T09:33:44.803Z,100318.53
2022-08-19T09:36:14.794Z,100322.47
2022-08-19T09:38:56.806Z,100321.81
2022-08-19T09:41:25.911Z,100318.94
2022-08-19T09:43:57.242Z,100325.78
2022-08-19T09:46:27.027Z,100317.28
2022-08-19T09:48:54.552Z,100318.00
2022-08-19T09:51:27.263Z,100313.41
2022-08-19T09:53:57.843Z,100315.53
2022-08-19T09:56:24.579Z,100314.00
2022-08-19T09:58:51.590Z,100315.81
2022-08-19T10:01:24.434Z,100322.03
2022-08-19T10:03:55.711Z,100310.88
2022-08-19T10:06:44.052Z,100305.50
2022-08-19T10:09:11.975Z,100294.81
2022-08-19T10:11:46.901Z,100303.41
2022-08-19T10:14:23.502Z,100295.00
2022-08-19T10:16:50.470Z,100295.16
2022-08-19T10:19:26.149Z,100298.97
2022-08-19T10:21:54.003Z,100292.16
2022-08-19T10:24:21.701Z,100286.78
2022-08-19T10:26:57.088Z,100271.47
2022-08-19T10:29:32.553Z,100279.03
2022-08-19T10:32:09.653Z,100277.34
2022-08-19T10:34:48.171Z,100276.22
2022-08-19T10:37:15.039Z,100272.22
2022-08-19T10:39:48.954Z,100271.38
2022-08-19T10:42:17.154Z,100271.63
2022-08-19T10:44:43.700Z,100272.03
2022-08-19T10:47:17.610Z,100265.78
2022-08-19T10:50:11.986Z,100257.22
2022-08-19T10:52:39.642Z,100257.66
2022-08-19T10:55:34.854Z,100250.56
2022-08-19T10:58:02.853Z,100247.81
2022-08-19T11:00:30.142Z,100240.25
2022-08-19T11:02:56.827Z,100234.78
2022-08-19T11:05:24.304Z,100232.06
2022-08-19T11:07:52.966Z,100231.72
2022-08-19T11:10:22.491Z,100228.16
2022-08-19T11:12:49.558Z,100225.41
2022-08-19T11:15:16.849Z,100230.63
2022-08-19T11:17:44.489Z,100230.94
2022-08-19T11:20:15.906Z,100230.47
2022-08-19T11:22:43.276Z,100224.72
2022-08-19T11:25:11.802Z,100231.59
2022-08-19T11:27:42.594Z,100236.91
2022-08-19T11:30:13.127Z,100232.75
2022-08-19T11:32:43.591Z,100225.16
2022-08-19T11:35:14.599Z,100216.25
2022-08-19T11:37:41.750Z,100205.00
2022-08-19T11:40:09.350Z,100211.19
2022-08-19T11:42:54.869Z,100202.38
2022-08-19T11:45:21.980Z,100189.19
2022-08-19T11:47:48.890Z,100196.53
2022-08-19T11:50:16.534Z,100195.94
2022-08-19T11:52:44.863Z,100196.94
2022-08-19T11:55:12.638Z,100204.28
2022-08-19T11:57:41.894Z,100202.88
2022-08-19T12:00:10.672Z,100205.38
2022-08-19T12:02:37.199Z,100205.13
2022-08-19T12:05:04.976Z,100199.28
2022-08-19T12:07:34.674Z,100199.50
2022-08-19T12:10:01.712Z,100190.22
2022-08-19T12:12:30.308Z,100193.19
2022-08-19T12:14:59.207Z,100185.00
2022-08-19T12:17:27.732Z,100193.50
2022-08-19T12:19:54.877Z,100193.31
2022-08-19T12:22:22.414Z,100195.56
2022-08-19T12:24:51.193Z,100188.66
2022-08-19T12:27:23.897Z,100188.88
2022-08-19T12:30:04.040Z,100184.03
2022-08-19T12:32:30.632Z,100186.56
2022-08-19T12:34:57.219Z,100193.19
2022-08-19T12:37:23.912Z,100190.19
2022-08-19T12:39:50.553Z,100195.09
2022-08-19T12:42:17.912Z,100186.56
2022-08-19T12:44:45.148Z,100197.09
2022-08-19T12:47:15.352Z,100194.91
2022-08-19T12:49:54.671Z,100189.91
2022-08-19T12:52:24.065Z,100176.59
2022-08-19T12:54:54.690Z,100181.91
2022-08-19T12:57:23.706Z,100175.66
2022-08-19T12:59:58.138Z,100179.00
2022-08-19T13:02:24.653Z,100180.75
2022-08-19T13:04:51.125Z,100173.78
2022-08-19T13:07:17.621Z,100185.41
2022-08-19T13:09:44.153Z,100171.13
2022-08-19T13:12:14.077Z,100173.97
2022-08-19T13:14:41.352Z,100174.03
2022-08-19T13:17:09.313Z,100176.44
2022-08-19T13:19:37.717Z,100174.06
2022-08-19T13:22:04.445Z,100162.16
2022-08-19T13:24:41.085Z,100170.13
2022-08-19T13:27:09.431Z,100168.50
2022-08-19T13:29:54.629Z,100156.59
2022-08-19T13:32:40.051Z,100181.19
2022-08-19T13:35:09.572Z,100178.78
2022-08-19T13:37:43.793Z,100170.44
2022-08-19T13:40:19.892Z,100178.16
2022-08-19T13:42:48.410Z,100183.34
2022-08-19T13:45:19.009Z,100175.06
2022-08-19T13:47:48.234Z,100171.13
2022-08-19T13:50:18.545Z,100173.53
2022-08-19T13:52:45.502Z,100168.03
2022-08-19T13:55:13.411Z,100175.28
2022-08-19T13:57:40.346Z,100170.56
2022-08-19T14:00:19.239Z,100177.09
2022-08-19T14:02:47.478Z,100181.06
2022-08-19T14:05:17.350Z,100179.59
2022-08-19T14:07:43.849Z,100174.00
2022-08-19T14:10:12.370Z,100177.25
2022-08-19T14:12:39.090Z,100160.94
2022-08-19T14:15:07.947Z,100164.16
2022-08-19T14:17:35.838Z,100166.94
2022-08-19T14:20:10.864Z,100163.41
2022-08-19T14:22:41.427Z,100161.84
2022-08-19T14:25:15.514Z,100158.34
2022-08-19T14:27:42.555Z,100160.69
2022-08-19T14:30:11.933Z,100162.38
2022-08-19T14:32:38.634Z,100156.03
2022-08-19T14:35:06.368Z,100162.81
2022-08-19T14:37:35.049Z,100160.09
2022-08-19T14:40:13.235Z,100167.28
2022-08-19T14:42:39.845Z,100171.25
2022-08-19T14:45:07.133Z,100156.53
2022-08-19T14:47:34.122Z,100157.69
2022-08-19T14:50:00.841Z,100152.06
2022-08-19T14:52:32.093Z,100149.59
2022-08-19T14:54:58.597Z,100151.13
2022-08-19T14:57:25.165Z,100150.63
2022-08-19T14:59:51.679Z,100140.50
2022-08-19T15:02:34.230Z,100147.47
2022-08-19T15:05:01.683Z,100147.78
2022-08-19T15:07:29.595Z,100148.94
2022-08-19T15:09:57.313Z,100149.69
2022-08-19T15:12:24.899Z,100151.66
2022-08-19T15:14:55.929Z,100164.78
2022-08-19T15:17:25.760Z,100162.41
2022-08-19T15:20:10.907Z,100161.47
2022-08-19T15:22:37.570Z,100160.97
2022-08-19T15:25:05.850Z,100161.38
2022-08-19T15:27:32.858Z,100164.16
2022-08-19T15:30:01.139Z,100172.06
2022-08-19T15:32:29.099Z,100166.44
2022-08-19T15:34:55.814Z,100165.53
2022-08-19T15:37:24.023Z,100164.66
2022-08-19T15:39:51.203Z,100170.88
2022-08-19T15:42:29.558Z,100157.22
2022-08-19T15:45:00.653Z,100156.34
2022-08-19T15:47:35.472Z,100165.03
2022-08-19T15:50:18.683Z,100159.31
2022-08-19T15:52:54.528Z,100160.00
2022-08-19T15:55:32.700Z,100155.97
2022-08-19T15:58:32.644Z,100145.28
2022-08-19T16:01:24.350Z,100145.13
2022-08-19T16:04:14.494Z,100148.16
2022-08-19T16:06:48.247Z,100145.88
2022-08-19T16:09:16.508Z,100152.88
2022-08-19T16:11:45.835Z,100147.31
2022-08-19T16:14:14.696Z,100150.47
2022-08-19T16:16:41.268Z,100137.28
2022-08-19T16:19:10.357Z,100151.94
2022-08-19T16:21:41.922Z,100152.25
2022-08-19T16:24:12.051Z,100164.91
2022-08-19T16:26:39.167Z,100161.94
2022-08-19T16:29:09.022Z,100159.06
2022-08-19T16:31:43.628Z,100155.28
2022-08-19T16:34:11.476Z,100153.56
2022-08-19T16:36:42.218Z,100149.84
2022-08-19T16:39:14.476Z,100151.44
2022-08-19T16:41:42.749Z,100162.28
2022-08-19T16:44:11.964Z,100158.19
2022-08-19T16:46:40.298Z,100160.81
2022-08-19T16:49:07.085Z,100155.16
2022-08-19T16:51:33.869Z,100146.75
2022-08-19T16:54:01.821Z,100150.25
2022-08-19T16:56:29.001Z,100137.09
2022-08-19T16:58:56.264Z,100143.00
2022-08-19T17:01:22.844Z,100126.00
2022-08-19T17:03:50.561Z,100132.78
2022-08-19T17:06:20.821Z,100134.38
2022-08-19T17:08:54.504Z,100132.94
2022-08-19T17:11:24.408Z,100135.19
2022-08-19T17:13:51.429Z,100142.22
2022-08-19T17:16:20.010Z,100130.22
2022-08-19T17:18:46.556Z,100125.31
2022-08-19T17:21:13.295Z,100122.03
2022-08-19T17:23:42.686Z,100132.97
2022-08-19T17:26:14.019Z,100131.22
2022-08-19T17:28:46.193Z,100123.44
2022-08-19T17:31:12.683Z,100126.06
2022-08-19T17:33:41.279Z,100129.84
2022-08-19T17:36:09.126Z,100132.00
2022-08-19T17:38:36.892Z,100135.78
2022-08-19T17:41:06.402Z,100143.13
2022-08-19T17:43:40.006Z,100142.16
2022-08-19T17:46:11.145Z,100137.56
2022-08-19T17:48:38.934Z,100133.00
2022-08-19T17:51:22.019Z,100140.34
2022-08-19T17:53:50.850Z,100140.50
2022-08-19T17:56:17.550Z,100144.25
2022-08-19T17:58:45.009Z,100148.44
2022-08-19T18:01:24.734Z,100138.09
2022-08-19T18:03:52.827Z,100144.34
2022-08-19T18:06:19.338Z,100141.00
2022-08-19T18:08:49.096Z,100145.31
2022-08-19T18:11:16.931Z,100154.31
2022-08-19T18:13:43.474Z,100145.44
2022-08-19T18:16:11.329Z,100145.34
2022-08-19T18:18:41.997Z,100153.28
2022-08-19T18:21:10.014Z,100151.84
2022-08-19T18:23:44.201Z,100147.72
2022-08-19T18:26:12.452Z,100151.22
2022-08-19T18:28:39.901Z,100156.56
2022-08-19T18:31:17.221Z,100154.03
2022-08-19T18:33:44.890Z,100149.88
2022-08-19T18:36:11.890Z,100147.34
2022-08-19T18:38:57.084Z,100161.47
2022-08-19T18:41:42.929Z,100157.44
2022-08-19T18:44:28.383Z,100158.03
2022-08-19T18:47:13.746Z,100166.44
2022-08-19T18:49:40.596Z,100161.50
2022-08-19T18:52:07.521Z,100164.75
2022-08-19T18:54:34.486Z,100170.28
2022-08-19T18:57:01.373Z,100172.59
2022-08-19T18:59:30.218Z,100171.47
2022-08-19T19:01:58.487Z,100170.63
2022-08-19T19:04:36.024Z,100182.50
2022-08-19T19:07:05.012Z,100186.16
2022-08-19T19:09:31.588Z,100183.81
2022-08-19T19:12:00.832Z,100183.25
2022-08-19T19:14:48.248Z,100192.09
2022-08-19T19:17:15.612Z,100202.88
2022-08-19T19:19:44.091Z,100203.78
2022-08-19T19:22:17.679Z,100211.72
2022-08-19T19:24:44.323Z,100209.72
2022-08-19T19:27:13.136Z,100212.38
2022-08-19T19:29:40.923Z,100221.66
2022-08-19T19:32:17.909Z,100226.72
2022-08-19T19:34:45.486Z,100223.00
2022-08-19T19:37:12.008Z,100221.25
2022-08-19T19:39:46.391Z,100221.47
2022-08-19T19:42:20.337Z,100223.88
2022-08-19T19:44:49.342Z,100221.53
2022-08-19T19:47:17.519Z,100224.97
2022-08-19T19:50:10.779Z,100233.94
2022-08-19T19:52:31.998Z,100233.47
2022-08-19T19:54:58.597Z,100234.94
2022-08-19T19:57:26.774Z,100229.28
2022-08-19T19:59:54.298Z,100239.03
2022-08-19T20:02:22.034Z,100240.53
2022-08-19T20:04:49.491Z,100243.13
2022-08-19T20:07:15.997Z,100244.63
2022-08-19T20:09:58.778Z,100244.00
2022-08-19T20:12:26.541Z,100260.41
2022-08-19T20:14:53.053Z,100255.41
2022-08-19T20:17:20.740Z,100258.38
2022-08-19T20:19:48.013Z,100256.59
2022-08-19T20:22:14.688Z,100256.00
2022-08-19T20:24:42.689Z,100257.47
2022-08-19T20:27:10.733Z,100261.53
2022-08-19T20:29:41.550Z,100255.91
2022-08-19T20:32:10.329Z,100266.78
2022-08-19T20:34:37.480Z,100265.84
2022-08-19T20:37:04.715Z,100270.38
2022-08-19T20:39:31.267Z,100265.50
2022-08-19T20:41:57.804Z,100271.72
2022-08-19T20:44:25.497Z,100267.66
2022-08-19T20:46:55.533Z,100269.09
2022-08-19T20:49:27.461Z,100273.66
2022-08-19T20:51:55.222Z,100270.41
2022-08-19T20:54:21.864Z,100269.94
2022-08-19T20:56:48.418Z,100265.88
2022-08-19T20:59:15.002Z,100268.50
2022-08-19T21:01:41.467Z,100268.81
2022-08-19T21:04:07.982Z,100267.53
2022-08-19T21:06:34.459Z,100265.44
2022-08-19T21:09:00.969Z,100259.44
2022-08-19T21:11:27.595Z,100270.00
2022-08-19T21:13:54.160Z,100263.19
2022-08-19T21:16:20.651Z,100270.97
2022-08-19T21:18:47.847Z,100271.63
2022-08-19T21:21:14.732Z,100276.97
2022-08-19T21:23:41.375Z,100280.41
2022-08-19T21:26:09.055Z,100280.72
2022-08-19T21:28:36.367Z,100277.81
2022-08-19T21:31:05.350Z,100286.41
2022-08-19T21:33:32.966Z,100284.31
2022-08-19T21:36:00.213Z,100293.72
2022-08-19T21:38:27.546Z,100286.91
2022-08-19T21:40:54.275Z,100291.91
2022-08-19T21:43:21.122Z,100290.63
2022-08-19T21:45:48.348Z,100288.19
2022-08-19T21:48:15.332Z,100288.50
2022-08-19T21:50:43.051Z,100285.28
2022-08-19T21:53:13.962Z,100283.66
2022-08-19T21:55:44.196Z,100274.91
2022-08-19T21:58:11.859Z,100277.97
2022-08-19T22:00:39.389Z,100285.78
2022-08-19T22:03:06.481Z,100270.72
2022-08-19T22:05:33.948Z,100279.28
2022-08-19T22:08:02.208Z,100277.66
2022-08-19T22:10:32.104Z,100268.91
2022-08-19T22:12:59.616Z,100271.19
2022-08-19T22:15:29.835Z,100278.16
2022-08-19T22:18:01.620Z,100279.13
2022-08-19T22:20:30.987Z,100268.59
2022-08-19T22:23:03.567Z,100276.03
2022-08-19T22:25:42.049Z,100273.16
2022-08-19T22:28:10.946Z,100268.25
2022-08-19T22:30:41.626Z,100276.84
2022-08-19T22:33:11.676Z,100270.88
2022-08-19T22:35:40.464Z,100276.69
2022-08-19T22:38:08.763Z,100264.69
2022-08-19T22:40:39.718Z,100267.13
2022-08-19T22:43:18.897Z,100268.13
2022-08-19T22:45:46.710Z,100269.56
2022-08-19T22:48:16.084Z,100273.13
2022-08-19T22:51:05.249Z,100273.78
2022-08-19T22:53:33.757Z,100264.22
2022-08-19T22:56:00.569Z,100267.13
2022-08-19T22:58:28.077Z,100265.53
2022-08-19T23:00:54.882Z,100275.25
2022-08-19T23:03:21.747Z,100270.84
2022-08-19T23:05:48.266Z,100268.72
2022-08-19T23:42:27.315Z,100269.59
2022-08-19T23:44:59.322Z,100268.69
2022-08-19T23:47:25.858Z,100271.75
2022-08-19T23:49:53.398Z,100274.66
2022-08-19T23:52:19.960Z,100272.03
2022-08-19T23:54:46.486Z,100275.13
2022-08-19T23:57:14.590Z,100269.44
2022-08-19T23:59:42.602Z,100275.25
